sensor_id;sensor_type;location;lat;lon;timestamp;P1;durP1;ratioP1;P2;durP2;ratioP2
57893;SDS011;43710;47.460;19.034;2023-11-22T05:07:15;12.45;;;10.52;;
57893;SDS011;43710;47.460;19.034;2023-11-22T05:10:18;16.87;;;10.95;;
57893;SDS011;43710;47.460;19.034;2023-11-22T05:13:20;13.95;;;9.95;;
57893;SDS011;43710;47.460;19.034;2023-11-22T05:16:23;13.80;;;10.90;;
57893;SDS011;43710;47.460;19.034;2023-11-22T05:19:25;12.98;;;10.68;;
57893;SDS011;43710;47.460;19.034;2023-11-22T05:22:28;13.00;;;10.32;;
57893;SDS011;43710;47.460;19.034;2023-11-22T05:25:30;15.80;;;10.95;;
57893;SDS011;43710;47.460;19.034;2023-11-22T05:28:33;12.82;;;10.13;;
57893;SDS011;43710;47.460;19.034;2023-11-22T05:31:36;13.98;;;10.15;;
57893;SDS011;43710;47.460;19.034;2023-11-22T05:34:39;12.37;;;9.77;;
57893;SDS011;43710;47.460;19.034;2023-11-22T05:37:42;13.30;;;10.23;;
57893;SDS011;43710;47.460;19.034;2023-11-22T05:40:44;13.52;;;10.70;;
57893;SDS011;43710;47.460;19.034;2023-11-22T05:43:47;13.45;;;10.73;;
57893;SDS011;43710;47.460;19.034;2023-11-22T05:46:49;14.07;;;9.60;;
57893;SDS011;43710;47.460;19.034;2023-11-22T05:49:51;12.43;;;9.70;;
57893;SDS011;43710;47.460;19.034;2023-11-22T05:52:54;12.57;;;10.05;;
57893;SDS011;43710;47.460;19.034;2023-11-22T05:55:57;11.88;;;9.95;;
57893;SDS011;43710;47.460;19.034;2023-11-22T05:59:02;13.55;;;10.15;;
57893;SDS011;43710;47.460;19.034;2023-11-22T06:02:04;13.20;;;10.38;;
57893;SDS011;43710;47.460;19.034;2023-11-22T06:05:06;13.55;;;10.15;;
57893;SDS011;43710;47.460;19.034;2023-11-22T06:08:09;12.50;;;10.13;;
57893;SDS011;43710;47.460;19.034;2023-11-22T06:11:12;13.90;;;11.18;;
57893;SDS011;43710;47.460;19.034;2023-11-22T06:14:15;14.25;;;10.70;;
57893;SDS011;43710;47.460;19.034;2023-11-22T06:17:18;15.13;;;11.38;;
57893;SDS011;43710;47.460;19.034;2023-11-22T06:20:20;14.87;;;10.98;;
57893;SDS011;43710;47.460;19.034;2023-11-22T06:23:23;15.68;;;12.02;;
57893;SDS011;43710;47.460;19.034;2023-11-22T06:26:26;13.45;;;10.98;;
57893;SDS011;43710;47.460;19.034;2023-11-22T06:29:28;15.13;;;10.93;;
57893;SDS011;43710;47.460;19.034;2023-11-22T06:32:31;17.35;;;11.68;;
57893;SDS011;43710;47.460;19.034;2023-11-22T06:35:33;13.35;;;10.82;;
57893;SDS011;43710;47.460;19.034;2023-11-22T06:38:36;13.52;;;10.18;;
57893;SDS011;43710;47.460;19.034;2023-11-22T06:41:41;14.30;;;11.50;;
57893;SDS011;43710;47.460;19.034;2023-11-22T06:44:43;14.60;;;11.15;;
57893;SDS011;43710;47.460;19.034;2023-11-22T06:47:50;15.32;;;11.45;;
57893;SDS011;43710;47.460;19.034;2023-11-22T06:50:52;13.85;;;10.80;;
57893;SDS011;43710;47.460;19.034;2023-11-22T06:53:55;14.87;;;11.60;;
57893;SDS011;43710;47.460;19.034;2023-11-22T06:56:59;15.82;;;11.15;;
57893;SDS011;43710;47.460;19.034;2023-11-22T07:00:02;14.13;;;11.85;;
57893;SDS011;43710;47.460;19.034;2023-11-22T07:03:11;14.07;;;11.07;;
57893;SDS011;43710;47.460;19.034;2023-11-22T07:06:14;13.10;;;10.18;;
57893;SDS011;43710;47.460;19.034;2023-11-22T07:09:17;12.30;;;10.25;;
57893;SDS011;43710;47.460;19.034;2023-11-22T07:12:19;13.73;;;10.27;;
57893;SDS011;43710;47.460;19.034;2023-11-22T07:15:21;11.98;;;10.00;;
57893;SDS011;43710;47.460;19.034;2023-11-22T07:18:24;13.27;;;10.43;;
57893;SDS011;43710;47.460;19.034;2023-11-22T07:21:26;13.07;;;9.57;;
57893;SDS011;43710;47.460;19.034;2023-11-22T07:24:29;20.85;;;10.02;;
57893;SDS011;43710;47.460;19.034;2023-11-22T07:27:36;11.73;;;9.57;;
57893;SDS011;43710;47.460;19.034;2023-11-22T07:30:38;10.77;;;7.97;;
57893;SDS011;43710;47.460;19.034;2023-11-22T07:33:43;10.18;;;8.48;;
57893;SDS011;43710;47.460;19.034;2023-11-22T07:36:45;9.15;;;7.53;;
57893;SDS011;43710;47.460;19.034;2023-11-22T07:39:49;11.75;;;8.35;;
57893;SDS011;43710;47.460;19.034;2023-11-22T07:42:52;13.00;;;8.18;;
57893;SDS011;43710;47.460;19.034;2023-11-22T07:45:54;10.05;;;7.43;;
57893;SDS011;43710;47.460;19.034;2023-11-22T07:48:57;9.65;;;7.65;;
57893;SDS011;43710;47.460;19.034;2023-11-22T07:51:59;9.52;;;7.85;;
57893;SDS011;43710;47.460;19.034;2023-11-22T07:55:03;12.55;;;8.40;;
57893;SDS011;43710;47.460;19.034;2023-11-22T07:58:10;14.68;;;7.80;;
57893;SDS011;43710;47.460;19.034;2023-11-22T08:01:13;10.82;;;7.03;;
57893;SDS011;43710;47.460;19.034;2023-11-22T08:04:16;14.68;;;8.20;;
57893;SDS011;43710;47.460;19.034;2023-11-22T08:07:19;8.95;;;7.87;;
57893;SDS011;43710;47.460;19.034;2023-11-22T08:10:23;9.57;;;7.30;;
57893;SDS011;43710;47.460;19.034;2023-11-22T08:13:27;9.98;;;7.70;;
57893;SDS011;43710;47.460;19.034;2023-11-22T08:16:30;10.07;;;7.53;;
57893;SDS011;43710;47.460;19.034;2023-11-22T08:19:33;10.75;;;7.87;;
57893;SDS011;43710;47.460;19.034;2023-11-22T08:22:35;11.75;;;8.43;;
57893;SDS011;43710;47.460;19.034;2023-11-22T08:25:37;11.20;;;8.90;;
57893;SDS011;43710;47.460;19.034;2023-11-22T08:28:42;13.90;;;8.70;;
57893;SDS011;43710;47.460;19.034;2023-11-22T08:31:44;10.77;;;8.32;;
57893;SDS011;43710;47.460;19.034;2023-11-22T08:34:47;10.85;;;8.45;;
57893;SDS011;43710;47.460;19.034;2023-11-22T08:37:50;11.98;;;8.63;;
57893;SDS011;43710;47.460;19.034;2023-11-22T08:40:53;16.35;;;9.77;;
57893;SDS011;43710;47.460;19.034;2023-11-22T08:43:59;15.43;;;9.75;;
57893;SDS011;43710;47.460;19.034;2023-11-22T08:47:02;11.88;;;9.18;;
57893;SDS011;43710;47.460;19.034;2023-11-22T08:50:08;13.03;;;9.77;;
57893;SDS011;43710;47.460;19.034;2023-11-22T08:53:13;14.10;;;9.07;;
57893;SDS011;43710;47.460;19.034;2023-11-22T08:56:15;11.63;;;8.38;;
57893;SDS011;43710;47.460;19.034;2023-11-22T08:59:18;25.33;;;7.10;;
57893;SDS011;43710;47.460;19.034;2023-11-22T09:02:21;10.48;;;5.60;;
57893;SDS011;43710;47.460;19.034;2023-11-22T09:05:25;7.90;;;6.28;;
57893;SDS011;43710;47.460;19.034;2023-11-22T09:08:29;7.32;;;5.80;;
57893;SDS011;43710;47.460;19.034;2023-11-22T09:11:32;8.18;;;5.20;;
57893;SDS011;43710;47.460;19.034;2023-11-22T09:14:36;7.15;;;5.70;;
57893;SDS011;43710;47.460;19.034;2023-11-22T09:17:40;11.52;;;5.90;;
57893;SDS011;43710;47.460;19.034;2023-11-22T09:20:49;6.37;;;4.87;;
57893;SDS011;43710;47.460;19.034;2023-11-22T09:23:52;6.75;;;5.20;;
57893;SDS011;43710;47.460;19.034;2023-11-22T09:26:54;7.43;;;4.80;;
57893;SDS011;43710;47.460;19.034;2023-11-22T09:29:57;8.93;;;5.18;;
57893;SDS011;43710;47.460;19.034;2023-11-22T09:33:00;10.82;;;5.18;;
57893;SDS011;43710;47.460;19.034;2023-11-22T09:36:03;8.63;;;5.85;;
57893;SDS011;43710;47.460;19.034;2023-11-22T09:39:10;7.75;;;5.20;;
57893;SDS011;43710;47.460;19.034;2023-11-22T09:42:13;9.15;;;4.95;;
57893;SDS011;43710;47.460;19.034;2023-11-22T09:45:16;6.82;;;5.37;;
57893;SDS011;43710;47.460;19.034;2023-11-22T09:48:20;9.20;;;5.10;;
57893;SDS011;43710;47.460;19.034;2023-11-22T09:51:30;9.55;;;6.35;;
57893;SDS011;43710;47.460;19.034;2023-11-22T09:54:35;7.70;;;5.85;;
57893;SDS011;43710;47.460;19.034;2023-11-22T09:57:42;7.47;;;5.93;;
57893;SDS011;43710;47.460;19.034;2023-11-22T10:00:45;7.45;;;5.53;;
57893;SDS011;43710;47.460;19.034;2023-11-22T10:03:49;8.88;;;5.82;;
57893;SDS011;43710;47.460;19.034;2023-11-22T10:06:52;9.57;;;5.72;;
57893;SDS011;43710;47.460;19.034;2023-11-22T10:09:55;6.93;;;5.35;;
57893;SDS011;43710;47.460;19.034;2023-11-22T10:12:59;7.45;;;5.43;;
57893;SDS011;43710;47.460;19.034;2023-11-22T10:16:10;8.45;;;6.18;;
57893;SDS011;43710;47.460;19.034;2023-11-22T10:19:13;10.50;;;5.68;;
57893;SDS011;43710;47.460;19.034;2023-11-22T10:25:22;11.32;;;6.53;;
57893;SDS011;43710;47.460;19.034;2023-11-22T10:28:26;10.35;;;6.00;;
57893;SDS011;43710;47.460;19.034;2023-11-22T10:31:30;9.82;;;7.32;;
57893;SDS011;43710;47.460;19.034;2023-11-22T10:34:32;10.43;;;7.50;;
57893;SDS011;43710;47.460;19.034;2023-11-22T10:37:35;11.00;;;7.95;;
57893;SDS011;43710;47.460;19.034;2023-11-22T10:40:38;11.90;;;8.50;;
57893;SDS011;43710;47.460;19.034;2023-11-22T10:43:40;13.18;;;9.20;;
57893;SDS011;43710;47.460;19.034;2023-11-22T10:46:46;14.20;;;9.27;;
57893;SDS011;43710;47.460;19.034;2023-11-22T10:49:49;12.88;;;10.00;;
57893;SDS011;43710;47.460;19.034;2023-11-22T10:52:53;14.32;;;10.60;;
57893;SDS011;43710;47.460;19.034;2023-11-22T10:56:02;16.17;;;10.35;;
57893;SDS011;43710;47.460;19.034;2023-11-22T10:59:13;17.80;;;11.55;;
57893;SDS011;43710;47.460;19.034;2023-11-22T11:02:16;16.95;;;12.70;;
57893;SDS011;43710;47.460;19.034;2023-11-22T11:08:30;15.80;;;10.90;;
57893;SDS011;43710;47.460;19.034;2023-11-22T11:11:34;18.30;;;11.68;;
57893;SDS011;43710;47.460;19.034;2023-11-22T11:14:38;16.83;;;11.88;;
57893;SDS011;43710;47.460;19.034;2023-11-22T11:17:41;15.57;;;12.55;;
57893;SDS011;43710;47.460;19.034;2023-11-22T11:23:54;15.95;;;12.13;;
57893;SDS011;43710;47.460;19.034;2023-11-22T11:27:02;17.95;;;13.23;;
57893;SDS011;43710;47.460;19.034;2023-11-22T11:30:38;20.67;;;14.87;;
57893;SDS011;43710;47.460;19.034;2023-11-22T11:36:53;20.60;;;15.38;;
57893;SDS011;43710;47.460;19.034;2023-11-22T11:39:57;20.65;;;14.80;;
57893;SDS011;43710;47.460;19.034;2023-11-22T11:43:00;22.05;;;14.38;;
57893;SDS011;43710;47.460;19.034;2023-11-22T11:46:03;20.35;;;14.55;;
57893;SDS011;43710;47.460;19.034;2023-11-22T11:49:13;18.25;;;14.07;;
57893;SDS011;43710;47.460;19.034;2023-11-22T11:52:16;18.05;;;13.68;;
57893;SDS011;43710;47.460;19.034;2023-11-22T11:55:19;17.62;;;12.75;;
57893;SDS011;43710;47.460;19.034;2023-11-22T11:58:22;17.23;;;13.48;;
57893;SDS011;43710;47.460;19.034;2023-11-22T12:01:27;16.65;;;13.25;;
57893;SDS011;43710;47.460;19.034;2023-11-22T12:04:32;14.50;;;11.90;;
57893;SDS011;43710;47.460;19.034;2023-11-22T12:07:37;14.30;;;12.02;;
57893;SDS011;43710;47.460;19.034;2023-11-22T12:10:40;16.25;;;11.50;;
57893;SDS011;43710;47.460;19.034;2023-11-22T12:13:42;15.55;;;11.73;;
57893;SDS011;43710;47.460;19.034;2023-11-22T12:16:54;19.00;;;13.32;;
57893;SDS011;43710;47.460;19.034;2023-11-22T12:20:12;15.20;;;11.20;;
57893;SDS011;43710;47.460;19.034;2023-11-22T12:23:19;16.08;;;12.25;;
57893;SDS011;43710;47.460;19.034;2023-11-22T12:26:22;12.93;;;10.80;;
57893;SDS011;43710;47.460;19.034;2023-11-22T12:29:24;16.27;;;11.73;;
57893;SDS011;43710;47.460;19.034;2023-11-22T12:32:27;14.43;;;9.75;;
57893;SDS011;43710;47.460;19.034;2023-11-22T12:35:31;9.00;;;6.72;;
57893;SDS011;43710;47.460;19.034;2023-11-22T12:38:36;9.05;;;6.80;;
57893;SDS011;43710;47.460;19.034;2023-11-22T12:41:42;10.07;;;7.45;;
57893;SDS011;43710;47.460;19.034;2023-11-22T12:44:53;10.68;;;7.18;;
57893;SDS011;43710;47.460;19.034;2023-11-22T12:47:56;10.80;;;7.72;;
57893;SDS011;43710;47.460;19.034;2023-11-22T12:51:02;10.43;;;7.35;;
57893;SDS011;43710;47.460;19.034;2023-11-22T12:54:05;9.35;;;7.30;;
57893;SDS011;43710;47.460;19.034;2023-11-22T12:57:11;11.32;;;8.13;;
57893;SDS011;43710;47.460;19.034;2023-11-22T13:00:15;10.98;;;7.97;;
57893;SDS011;43710;47.460;19.034;2023-11-22T13:03:18;10.60;;;8.18;;
57893;SDS011;43710;47.460;19.034;2023-11-22T13:06:20;11.50;;;8.43;;
57893;SDS011;43710;47.460;19.034;2023-11-22T13:09:26;11.48;;;8.50;;
57893;SDS011;43710;47.460;19.034;2023-11-22T13:12:29;9.63;;;7.70;;
57893;SDS011;43710;47.460;19.034;2023-11-22T13:15:33;12.20;;;8.38;;
57893;SDS011;43710;47.460;19.034;2023-11-22T13:18:35;11.20;;;7.97;;
57893;SDS011;43710;47.460;19.034;2023-11-22T13:21:40;11.93;;;8.00;;
57893;SDS011;43710;47.460;19.034;2023-11-22T13:24:43;11.30;;;8.85;;
57893;SDS011;43710;47.460;19.034;2023-11-22T13:27:46;11.23;;;8.70;;
57893;SDS011;43710;47.460;19.034;2023-11-22T13:30:50;11.73;;;9.70;;
57893;SDS011;43710;47.460;19.034;2023-11-22T13:33:52;13.65;;;11.10;;
57893;SDS011;43710;47.460;19.034;2023-11-22T13:36:55;12.85;;;10.63;;
57893;SDS011;43710;47.460;19.034;2023-11-22T13:39:57;13.65;;;10.73;;
57893;SDS011;43710;47.460;19.034;2023-11-22T13:43:00;13.88;;;11.45;;
57893;SDS011;43710;47.460;19.034;2023-11-22T13:46:02;14.10;;;11.15;;
57893;SDS011;43710;47.460;19.034;2023-11-22T13:49:05;15.13;;;11.63;;
57893;SDS011;43710;47.460;19.034;2023-11-22T13:52:08;15.45;;;12.37;;
57893;SDS011;43710;47.460;19.034;2023-11-22T13:55:11;13.57;;;11.88;;
57893;SDS011;43710;47.460;19.034;2023-11-22T13:58:14;14.07;;;11.60;;
57893;SDS011;43710;47.460;19.034;2023-11-22T14:01:17;15.20;;;12.20;;
57893;SDS011;43710;47.460;19.034;2023-11-22T14:04:24;15.50;;;12.73;;
57893;SDS011;43710;47.460;19.034;2023-11-22T14:07:26;16.30;;;12.63;;
57893;SDS011;43710;47.460;19.034;2023-11-22T14:10:29;15.68;;;13.38;;
57893;SDS011;43710;47.460;19.034;2023-11-22T14:13:31;14.63;;;12.73;;
57893;SDS011;43710;47.460;19.034;2023-11-22T14:16:34;15.05;;;12.05;;
57893;SDS011;43710;47.460;19.034;2023-11-22T14:19:36;14.23;;;12.37;;
57893;SDS011;43710;47.460;19.034;2023-11-22T14:22:46;16.25;;;12.65;;
57893;SDS011;43710;47.460;19.034;2023-11-22T14:25:49;13.90;;;11.98;;
57893;SDS011;43710;47.460;19.034;2023-11-22T14:28:52;17.05;;;11.88;;
57893;SDS011;43710;47.460;19.034;2023-11-22T14:31:54;14.45;;;11.65;;
57893;SDS011;43710;47.460;19.034;2023-11-22T14:34:57;14.52;;;12.20;;
57893;SDS011;43710;47.460;19.034;2023-11-22T14:38:00;16.62;;;11.35;;
57893;SDS011;43710;47.460;19.034;2023-11-22T14:41:03;14.43;;;11.20;;
57893;SDS011;43710;47.460;19.034;2023-11-22T14:44:05;11.57;;;10.32;;
57893;SDS011;43710;47.460;19.034;2023-11-22T14:47:08;15.20;;;10.65;;
57893;SDS011;43710;47.460;19.034;2023-11-22T14:50:24;12.10;;;10.07;;
57893;SDS011;43710;47.460;19.034;2023-11-22T14:53:30;14.07;;;9.77;;
57893;SDS011;43710;47.460;19.034;2023-11-22T14:56:34;12.57;;;9.70;;
57893;SDS011;43710;47.460;19.034;2023-11-22T14:59:36;13.82;;;9.48;;
57893;SDS011;43710;47.460;19.034;2023-11-22T15:02:39;13.00;;;8.95;;
57893;SDS011;43710;47.460;19.034;2023-11-22T15:05:56;11.07;;;8.63;;
57893;SDS011;43710;47.460;19.034;2023-11-22T15:08:59;10.45;;;8.55;;
57893;SDS011;43710;47.460;19.034;2023-11-22T15:12:02;10.63;;;8.98;;
57893;SDS011;43710;47.460;19.034;2023-11-22T15:15:06;11.02;;;8.10;;
57893;SDS011;43710;47.460;19.034;2023-11-22T15:18:09;13.95;;;8.70;;
57893;SDS011;43710;47.460;19.034;2023-11-22T15:21:12;10.43;;;7.97;;
57893;SDS011;43710;47.460;19.034;2023-11-22T15:24:16;10.07;;;8.10;;
57893;SDS011;43710;47.460;19.034;2023-11-22T15:27:18;10.77;;;7.87;;
57893;SDS011;43710;47.460;19.034;2023-11-22T15:30:20;12.55;;;8.13;;
57893;SDS011;43710;47.460;19.034;2023-11-22T15:33:23;10.55;;;8.05;;
57893;SDS011;43710;47.460;19.034;2023-11-22T15:36:25;9.95;;;8.25;;
57893;SDS011;43710;47.460;19.034;2023-11-22T15:39:28;12.63;;;7.87;;
57893;SDS011;43710;47.460;19.034;2023-11-22T15:42:30;11.40;;;7.87;;
57893;SDS011;43710;47.460;19.034;2023-11-22T15:45:33;9.32;;;7.65;;
57893;SDS011;43710;47.460;19.034;2023-11-22T15:48:36;10.30;;;7.40;;
57893;SDS011;43710;47.460;19.034;2023-11-22T15:51:38;10.63;;;7.40;;
57893;SDS011;43710;47.460;19.034;2023-11-22T15:54:40;10.75;;;7.53;;
57893;SDS011;43710;47.460;19.034;2023-11-22T15:57:44;8.65;;;7.07;;
57893;SDS011;43710;47.460;19.034;2023-11-22T16:00:46;11.25;;;7.32;;
57893;SDS011;43710;47.460;19.034;2023-11-22T16:03:49;7.80;;;6.10;;
57893;SDS011;43710;47.460;19.034;2023-11-22T16:06:51;12.95;;;7.68;;
57893;SDS011;43710;47.460;19.034;2023-11-22T16:09:54;9.10;;;7.22;;
57893;SDS011;43710;47.460;19.034;2023-11-22T16:12:56;11.43;;;7.30;;
57893;SDS011;43710;47.460;19.034;2023-11-22T16:15:58;10.82;;;7.50;;
57893;SDS011;43710;47.460;19.034;2023-11-22T16:19:01;12.98;;;7.78;;
57893;SDS011;43710;47.460;19.034;2023-11-22T16:22:04;12.63;;;7.47;;
57893;SDS011;43710;47.460;19.034;2023-11-22T16:25:06;9.57;;;7.12;;
57893;SDS011;43710;47.460;19.034;2023-11-22T16:28:10;9.68;;;7.60;;
57893;SDS011;43710;47.460;19.034;2023-11-22T16:31:12;10.68;;;7.62;;
57893;SDS011;43710;47.460;19.034;2023-11-22T16:34:17;11.07;;;8.23;;
57893;SDS011;43710;47.460;19.034;2023-11-22T16:37:19;11.35;;;7.97;;
57893;SDS011;43710;47.460;19.034;2023-11-22T16:40:22;10.65;;;8.10;;
57893;SDS011;43710;47.460;19.034;2023-11-22T16:43:24;12.32;;;8.65;;
57893;SDS011;43710;47.460;19.034;2023-11-22T16:46:27;11.00;;;8.25;;
57893;SDS011;43710;47.460;19.034;2023-11-22T16:49:42;14.82;;;9.27;;
57893;SDS011;43710;47.460;19.034;2023-11-22T16:52:46;11.25;;;8.20;;
57893;SDS011;43710;47.460;19.034;2023-11-22T16:55:49;10.07;;;7.75;;
